Time;durP1;ratioP1;P1;durP2;ratioP2;P2;SDS_P1;SDS_P2;PMS_P1;PMS_P2;Temp;Humidity;BMP_temperature;BMP_pressure;BME280_temperature;BME280_humidity;BME280_pressure;Samples;Min_cycle;Max_cycle;Signal;HPM_P1;HPM_P2
2022/05/20 00:00:49;;;;;;;4.88;4.47;;;17.70;99.90;;;;;;4898613;29;20285;-64
2022/05/20 00:03:18;;;;;;;6.60;4.50;;;17.70;99.90;;;;;;4897984;29;20305;-64
2022/05/20 00:05:47;;;;;;;10.23;4.25;;;17.80;99.90;;;;;;4898515;29;20718;-64
2022/05/20 00:08:15;;;;;;;5.47;4.00;;;17.70;99.90;;;;;;4898822;29;20209;-63
2022/05/20 00:10:43;;;;;;;10.30;4.95;;;17.70;99.90;;;;;;4898516;29;20727;-63
2022/05/20 00:13:12;;;;;;;4.70;4.30;;;17.60;99.90;;;;;;4897804;29;20292;-63
2022/05/20 00:15:40;;;;;;;5.72;4.43;;;17.50;99.90;;;;;;4898181;29;20281;-64
2022/05/20 00:18:08;;;;;;;7.90;4.95;;;17.60;99.90;;;;;;4898451;29;20237;-64
2022/05/20 00:20:36;;;;;;;3.92;3.60;;;17.60;99.90;;;;;;4897668;29;20265;-64
2022/05/20 00:23:05;;;;;;;5.63;4.35;;;17.60;99.90;;;;;;4897302;29;20272;-64
2022/05/20 00:25:48;;;;;;;4.40;4.00;;;17.70;99.90;;;;;;4898494;29;20233;-64
2022/05/20 00:28:20;;;;;;;3.97;3.67;;;17.80;99.90;;;;;;4898449;29;20209;-64
2022/05/20 00:30:50;;;;;;;4.40;4.10;;;17.90;99.90;;;;;;4897977;29;20225;-64
2022/05/20 00:33:18;;;;;;;4.65;4.25;;;17.90;99.90;;;;;;4897514;29;20320;-64
2022/05/20 00:35:46;;;;;;;9.93;4.40;;;18.00;99.90;;;;;;4898311;29;20535;-64
2022/05/20 00:38:15;;;;;;;8.25;4.43;;;18.00;99.90;;;;;;4898165;29;20247;-64
2022/05/20 00:40:43;;;;;;;3.97;3.60;;;18.00;99.90;;;;;;4898084;29;20256;-63
2022/05/20 00:43:14;;;;;;;5.25;4.10;;;18.10;99.90;;;;;;4897017;29;20253;-64
2022/05/20 00:45:45;;;;;;;6.30;4.05;;;18.10;99.90;;;;;;4897831;29;20221;-63
2022/05/20 00:48:13;;;;;;;5.93;3.97;;;18.10;99.90;;;;;;4897982;29;20284;-64
2022/05/20 00:50:47;;;;;;;5.18;4.63;;;18.10;99.90;;;;;;4897991;29;20258;-64
2022/05/20 00:53:19;;;;;;;3.60;3.30;;;18.10;99.90;;;;;;4897255;29;20241;-63
2022/05/20 00:55:47;;;;;;;4.22;3.72;;;18.20;99.90;;;;;;4897649;29;20631;-63
2022/05/20 00:58:19;;;;;;;5.20;3.65;;;18.20;99.90;;;;;;4898022;29;20291;-63
2022/05/20 01:00:51;;;;;;;3.60;3.17;;;18.20;99.90;;;;;;4897634;29;20221;-64
2022/05/20 01:03:23;;;;;;;3.60;3.25;;;18.30;99.90;;;;;;4897105;29;20277;-64
2022/05/20 01:05:53;;;;;;;5.28;3.40;;;18.30;99.90;;;;;;4897332;29;20268;-64
2022/05/20 01:08:23;;;;;;;4.25;3.85;;;18.40;99.90;;;;;;4898001;29;20261;-63
2022/05/20 01:10:52;;;;;;;5.20;3.80;;;18.30;99.90;;;;;;4915569;29;20335;-63
2022/05/20 01:13:21;;;;;;;8.07;3.30;;;18.20;99.90;;;;;;4903599;29;20210;-64
2022/05/20 01:15:50;;;;;;;4.78;3.63;;;18.10;99.90;;;;;;4893262;29;20644;-63
2022/05/20 01:18:19;;;;;;;5.22;3.03;;;18.10;99.90;;;;;;4894946;29;20205;-63
2022/05/20 01:20:51;;;;;;;6.80;4.47;;;18.10;99.90;;;;;;4897195;29;20664;-64
2022/05/20 01:23:23;;;;;;;4.30;4.00;;;18.10;99.90;;;;;;4896788;29;20217;-63
2022/05/20 01:25:55;;;;;;;4.65;3.80;;;18.10;99.90;;;;;;4897230;29;20250;-64
2022/05/20 01:28:25;;;;;;;5.10;4.03;;;18.10;99.90;;;;;;4897139;29;20731;-63
2022/05/20 01:30:55;;;;;;;4.18;3.53;;;18.10;99.90;;;;;;4897401;29;20293;-64
2022/05/20 01:33:25;;;;;;;6.57;5.05;;;18.00;99.90;;;;;;4889862;29;20293;-63
2022/05/20 01:35:53;;;;;;;4.25;3.95;;;18.10;99.90;;;;;;4891245;29;20331;-63
2022/05/20 01:38:23;;;;;;;4.10;3.70;;;18.10;99.90;;;;;;4891245;29;20257;-64
2022/05/20 01:40:55;;;;;;;6.85;3.72;;;18.20;99.90;;;;;;4896851;29;20209;-64
2022/05/20 01:43:40;;;;;;;4.38;4.07;;;18.30;99.90;;;;;;4896371;29;20743;-64
2022/05/20 01:46:21;;;;;;;4.18;3.78;;;18.30;99.90;;;;;;4896709;29;20687;-64
2022/05/20 01:48:59;;;;;;;5.80;4.43;;;18.20;99.90;;;;;;4895505;29;20631;-64
2022/05/20 01:51:34;;;;;;;4.20;3.80;;;18.10;99.90;;;;;;4890665;29;20276;-64
2022/05/20 01:54:09;;;;;;;5.13;3.88;;;18.10;99.90;;;;;;4895950;29;20244;-64
2022/05/20 01:56:43;;;;;;;7.63;4.25;;;18.10;99.90;;;;;;4896981;29;20240;-64
2022/05/20 01:59:17;;;;;;;5.40;4.47;;;18.00;99.90;;;;;;4896727;29;20260;-64
2022/05/20 02:01:51;;;;;;;8.48;4.50;;;17.90;99.90;;;;;;4896415;29;20244;-63
2022/05/20 02:04:27;;;;;;;5.28;4.78;;;17.80;99.90;;;;;;4896183;29;20736;-63
2022/05/20 02:07:00;;;;;;;7.55;5.65;;;17.70;99.90;;;;;;4896745;29;20284;-64
2022/05/20 02:09:36;;;;;;;18.40;5.15;;;17.60;99.90;;;;;;4896404;29;20340;-64
2022/05/20 02:12:04;;;;;;;7.25;4.82;;;17.70;99.90;;;;;;4895935;29;20236;-64
2022/05/20 02:14:37;;;;;;;4.85;4.45;;;17.70;99.90;;;;;;4896293;29;20240;-64
2022/05/20 02:17:11;;;;;;;4.90;4.40;;;17.60;99.90;;;;;;4899630;29;20205;-64
2022/05/20 02:19:44;;;;;;;8.13;4.50;;;17.60;99.90;;;;;;4896097;29;20277;-64
2022/05/20 02:22:16;;;;;;;4.30;4.00;;;17.40;99.90;;;;;;4895842;29;20295;-64
2022/05/20 02:24:47;;;;;;;6.15;4.50;;;17.40;99.90;;;;;;4896025;29;20214;-64
2022/05/20 02:27:20;;;;;;;4.65;4.25;;;17.40;99.90;;;;;;4896568;29;20273;-64
2022/05/20 02:29:51;;;;;;;4.60;4.20;;;17.30;99.90;;;;;;4896232;29;20229;-64
2022/05/20 02:32:24;;;;;;;4.80;4.40;;;17.40;99.90;;;;;;4895532;29;20213;-64
2022/05/20 02:34:53;;;;;;;5.60;4.80;;;17.40;99.90;;;;;;4896092;29;20247;-63
2022/05/20 02:37:23;;;;;;;7.50;5.47;;;17.40;99.90;;;;;;4896692;29;20240;-64
2022/05/20 02:39:53;;;;;;;7.30;6.20;;;17.30;99.90;;;;;;4896137;29;20234;-64
2022/05/20 02:42:22;;;;;;;6.65;5.78;;;17.30;99.90;;;;;;4895875;29;20240;-64
2022/05/20 02:44:50;;;;;;;7.07;5.60;;;17.40;99.90;;;;;;4915747;29;20236;-63
2022/05/20 02:47:19;;;;;;;8.85;7.60;;;17.40;99.90;;;;;;4912328;29;20269;-64
2022/05/20 02:49:48;;;;;;;11.50;7.10;;;17.30;99.90;;;;;;4897732;29;20256;-63
2022/05/20 02:52:15;;;;;;;8.77;5.95;;;17.20;99.90;;;;;;4893297;29;20236;-63
2022/05/20 02:54:43;;;;;;;8.50;6.18;;;17.20;99.90;;;;;;4893745;29;20308;-63
2022/05/20 02:57:12;;;;;;;9.25;6.50;;;17.20;99.90;;;;;;4899944;29;20236;-63
2022/05/20 03:05:11;;;;;;;9.35;8.23;;;17.10;99.90;;;;;;4899791;29;20694;-64
2022/05/20 03:07:39;;;;;;;9.15;8.45;;;17.00;99.90;;;;;;4899888;29;20267;-63
2022/05/20 03:10:07;;;;;;;7.82;7.18;;;17.00;99.90;;;;;;4957117;23;20227;-72
2022/05/20 03:12:37;;;;;;;8.48;7.68;;;16.90;99.90;;;;;;4964085;28;20211;-72
2022/05/20 03:15:06;;;;;;;9.13;7.90;;;16.90;99.90;;;;;;4956038;29;20286;-71
2022/05/20 03:17:34;;;;;;;9.40;7.90;;;16.90;99.90;;;;;;4958227;28;20238;-72
2022/05/20 03:20:03;;;;;;;9.45;8.60;;;16.90;99.90;;;;;;4962720;28;20234;-71
2022/05/20 03:22:33;;;;;;;9.98;8.07;;;16.80;99.90;;;;;;4955529;29;20477;-71
2022/05/20 03:25:01;;;;;;;9.50;8.60;;;16.80;99.90;;;;;;4955904;29;20297;-71
2022/05/20 03:27:29;;;;;;;10.35;9.45;;;16.80;99.90;;;;;;4955894;29;20219;-71
2022/05/20 03:29:59;;;;;;;10.65;9.35;;;16.80;99.90;;;;;;4956260;28;20231;-72
2022/05/20 03:32:27;;;;;;;11.63;9.55;;;16.80;99.90;;;;;;4955371;28;20618;-72
2022/05/20 03:34:56;;;;;;;10.90;9.15;;;16.70;99.90;;;;;;4955607;29;20247;-71
2022/05/20 03:37:25;;;;;;;10.35;9.45;;;16.80;99.90;;;;;;4955831;29;20203;-72
2022/05/20 03:39:55;;;;;;;14.00;9.13;;;16.80;99.90;;;;;;4955706;28;20255;-71
2022/05/20 03:42:23;;;;;;;10.10;9.20;;;16.80;99.90;;;;;;4949251;29;20211;-71
2022/05/20 03:44:52;;;;;;;10.93;9.93;;;16.90;99.90;;;;;;4949620;29;20268;-71
2022/05/20 03:47:21;;;;;;;10.63;8.43;;;16.80;99.90;;;;;;4954628;28;20784;-71
2022/05/20 03:49:49;;;;;;;10.38;9.30;;;16.90;99.90;;;;;;4960332;28;20692;-71
2022/05/20 03:52:18;;;;;;;14.75;10.00;;;16.90;99.90;;;;;;4954991;28;20794;-71
2022/05/20 03:54:46;;;;;;;16.42;9.70;;;17.00;99.90;;;;;;4955299;29;20227;-72
2022/05/20 03:57:14;;;;;;;10.40;8.93;;;16.90;99.90;;;;;;4955261;29;20624;-72
2022/05/20 03:59:42;;;;;;;11.13;10.13;;;17.00;99.90;;;;;;4955564;28;20235;-72
2022/05/20 04:02:12;;;;;;;10.23;9.32;;;17.00;99.90;;;;;;4954668;29;20241;-72
2022/05/20 04:04:44;;;;;;;10.85;9.85;;;17.00;99.90;;;;;;4955362;29;20219;-72
2022/05/20 04:07:14;;;;;;;11.15;10.10;;;17.00;99.90;;;;;;4955395;28;20246;-71
2022/05/20 04:09:42;;;;;;;10.63;9.73;;;17.00;99.90;;;;;;4954930;28;20239;-71
2022/05/20 04:12:17;;;;;;;11.80;10.70;;;16.90;99.90;;;;;;4954483;29;20235;-71
2022/05/20 04:14:45;;;;;;;12.05;10.85;;;16.90;99.90;;;;;;4955023;29;20234;-71
2022/05/20 04:17:13;;;;;;;13.60;12.40;;;17.00;99.90;;;;;;4956981;28;20691;-71
2022/05/20 04:19:43;;;;;;;15.27;13.02;;;17.00;99.90;;;;;;4961382;28;20246;-71
2022/05/20 04:22:13;;;;;;;16.80;15.27;;;17.10;99.90;;;;;;4954286;29;20230;-72
2022/05/20 04:24:41;;;;;;;15.50;14.20;;;17.10;99.90;;;;;;4954832;29;20211;-71
2022/05/20 04:27:09;;;;;;;15.85;14.15;;;17.00;99.90;;;;;;4954753;29;20266;-71
2022/05/20 04:29:37;;;;;;;18.20;16.52;;;16.90;99.90;;;;;;4954873;28;20310;-71
2022/05/20 04:32:06;;;;;;;17.15;15.55;;;16.80;99.90;;;;;;4954161;29;20230;-71
2022/05/20 04:34:33;;;;;;;17.70;16.10;;;16.80;99.90;;;;;;4954825;29;20290;-71
2022/05/20 04:37:03;;;;;;;16.02;14.63;;;16.80;99.90;;;;;;4954974;29;20262;-71
2022/05/20 04:39:31;;;;;;;16.50;14.68;;;16.80;99.90;;;;;;4954584;28;20227;-69
2022/05/20 04:47:32;;;;;;;22.92;15.75;;;16.90;99.90;;;;;;4959763;28;20313;-71
2022/05/20 04:50:00;;;;;;;16.70;14.70;;;17.00;99.90;;;;;;4960804;28;20732;-71
2022/05/20 04:52:30;;;;;;;16.83;13.00;;;16.90;99.90;;;;;;4953976;29;20286;-72
2022/05/20 04:54:57;;;;;;;19.67;11.70;;;16.80;99.90;;;;;;4954203;29;20626;-72
2022/05/20 04:57:28;;;;;;;16.38;12.18;;;16.80;99.90;;;;;;4954173;29;20669;-73
2022/05/20 05:00:00;;;;;;;16.65;14.82;;;16.80;99.90;;;;;;4954102;28;20226;-72
2022/05/20 05:02:28;;;;;;;18.10;16.33;;;16.80;99.90;;;;;;4953714;29;20211;-72
2022/05/20 05:04:56;;;;;;;18.85;16.85;;;16.80;99.90;;;;;;4954447;29;20222;-75
2022/05/20 05:07:24;;;;;;;17.77;16.00;;;16.90;99.90;;;;;;4953607;28;20293;-74
2022/05/20 05:09:54;;;;;;;17.70;15.88;;;16.90;99.90;;;;;;4953662;28;21042;-74
2022/05/20 05:12:23;;;;;;;18.45;16.15;;;16.90;99.90;;;;;;4953713;29;20673;-73
2022/05/20 05:14:52;;;;;;;18.48;14.77;;;16.90;99.90;;;;;;4954142;29;20243;-73
2022/05/20 05:18:09;;;;;;;17.23;15.65;;;16.90;99.90;;;;;;4956612;28;20661;-73
2022/05/20 05:20:13;;;;;;;17.60;13.73;;;16.90;99.90;;;;;;4953301;28;20278;-72
2022/05/20 05:22:41;;;;;;;31.70;15.25;;;16.90;99.90;;;;;;4947926;29;20203;-72
2022/05/20 05:25:11;;;;;;;14.85;13.38;;;17.00;99.90;;;;;;4954010;29;20688;-73
2022/05/20 05:27:40;;;;;;;15.80;14.20;;;17.00;99.90;;;;;;4954314;29;20610;-73
2022/05/20 05:30:09;;;;;;;14.27;12.63;;;17.00;99.90;;;;;;4953933;28;20752;-73
2022/05/20 05:32:37;;;;;;;15.35;13.60;;;16.90;99.90;;;;;;4953236;29;20239;-73
2022/05/20 05:35:07;;;;;;;15.15;13.45;;;17.00;99.90;;;;;;4954684;28;20200;-72
2022/05/20 05:37:36;;;;;;;14.60;13.10;;;17.10;99.90;;;;;;4954643;29;20747;-73
2022/05/20 05:40:05;;;;;;;14.10;12.60;;;17.10;99.90;;;;;;4953792;28;20469;-73
2022/05/20 05:42:34;;;;;;;15.77;13.90;;;17.20;99.90;;;;;;4952978;29;20298;-73
2022/05/20 05:45:03;;;;;;;13.00;12.00;;;17.20;99.90;;;;;;4953777;29;20214;-72
2022/05/20 05:47:31;;;;;;;13.73;12.52;;;17.30;99.90;;;;;;4958666;28;20233;-73
2022/05/20 05:49:59;;;;;;;14.02;12.50;;;17.40;99.90;;;;;;4959853;28;20231;-72
2022/05/20 05:52:27;;;;;;;13.07;11.55;;;17.50;99.90;;;;;;4952774;29;20234;-72
2022/05/20 05:54:55;;;;;;;12.43;11.35;;;17.50;99.90;;;;;;4953366;29;20211;-73
2022/05/20 05:57:23;;;;;;;13.25;11.90;;;17.50;99.90;;;;;;4953402;29;20230;-72
2022/05/20 05:59:52;;;;;;;12.20;11.20;;;17.50;99.90;;;;;;4953306;29;20228;-72
2022/05/20 06:02:21;;;;;;;12.25;11.18;;;17.50;99.90;;;;;;4952352;29;20239;-72
2022/05/20 06:04:49;;;;;;;11.95;10.63;;;17.50;99.90;;;;;;4953859;29;20199;-72
2022/05/20 06:07:17;;;;;;;11.07;9.88;;;17.50;99.90;;;;;;4953420;29;20651;-72
2022/05/20 06:09:46;;;;;;;10.63;9.35;;;17.60;99.90;;;;;;4953180;28;20298;-72
2022/05/20 06:12:14;;;;;;;10.68;9.52;;;17.60;99.90;;;;;;4952348;29;20669;-72
2022/05/20 06:14:42;;;;;;;15.68;10.10;;;17.70;99.90;;;;;;4953175;29;20295;-72
2022/05/20 06:17:13;;;;;;;10.38;8.95;;;17.70;99.90;;;;;;4954861;28;20245;-72
2022/05/20 06:19:41;;;;;;;11.27;10.07;;;17.80;99.90;;;;;;4958287;28;20270;-72
2022/05/20 06:22:10;;;;;;;11.73;10.43;;;17.80;99.90;;;;;;4952337;29;20267;-72
2022/05/20 06:24:38;;;;;;;10.52;9.63;;;17.80;99.90;;;;;;4953265;29;20783;-72
2022/05/20 06:27:06;;;;;;;15.25;10.40;;;17.90;99.90;;;;;;4952849;29;20254;-72
2022/05/20 06:29:35;;;;;;;11.10;9.55;;;17.80;99.90;;;;;;4952874;28;20258;-72
2022/05/20 06:32:04;;;;;;;12.60;11.32;;;17.90;99.90;;;;;;4952214;29;20200;-70
2022/05/20 06:40:08;;;;;;;11.07;10.18;;;17.90;99.90;;;;;;4952489;28;20631;-72
2022/05/20 06:42:36;;;;;;;11.57;10.73;;;18.00;99.90;;;;;;4951957;29;20215;-71
2022/05/20 06:45:05;;;;;;;11.82;10.85;;;18.20;99.90;;;;;;4952868;29;20724;-71
2022/05/20 06:47:33;;;;;;;11.90;10.80;;;18.40;99.90;;;;;;4957756;28;20245;-71
2022/05/20 06:50:03;;;;;;;11.48;10.50;;;18.40;99.90;;;;;;4958782;28;20294;-70
2022/05/20 06:52:31;;;;;;;15.75;10.82;;;18.50;99.90;;;;;;4952067;29;20207;-70
2022/05/20 06:55:08;;;;;;;11.13;10.23;;;18.60;99.90;;;;;;4952753;29;20771;-70
2022/05/20 06:57:39;;;;;;;11.80;10.70;;;18.60;99.90;;;;;;4952602;29;20211;-72
2022/05/20 07:00:11;;;;;;;14.05;12.85;;;18.70;99.90;;;;;;4952512;28;20270;-70
2022/05/20 07:02:40;;;;;;;12.95;11.75;;;18.90;99.90;;;;;;4951616;29;20209;-71
2022/05/20 07:05:11;;;;;;;14.43;11.48;;;18.90;99.90;;;;;;4952703;29;20653;-71
2022/05/20 07:07:40;;;;;;;12.13;10.95;;;19.10;99.90;;;;;;4952539;29;20740;-71
2022/05/20 07:10:10;;;;;;;13.00;11.70;;;19.20;99.90;;;;;;4952499;28;20263;-71
2022/05/20 07:12:38;;;;;;;13.02;11.82;;;19.20;99.90;;;;;;4951676;29;20270;-72
2022/05/20 07:15:07;;;;;;;12.38;11.10;;;19.20;99.90;;;;;;4952759;28;20752;-72
2022/05/20 07:17:36;;;;;;;12.55;11.35;;;19.20;99.90;;;;;;4953327;28;20661;-71
2022/05/20 07:20:04;;;;;;;14.38;12.98;;;19.20;99.90;;;;;;4952236;28;20238;-71
2022/05/20 07:22:34;;;;;;;12.65;11.65;;;19.30;99.90;;;;;;4951945;29;20246;-71
2022/05/20 07:25:02;;;;;;;12.55;11.48;;;19.50;99.90;;;;;;4952389;28;20246;-71
2022/05/20 07:27:30;;;;;;;15.38;12.50;;;19.60;99.90;;;;;;4952189;29;20203;-71
2022/05/20 07:29:59;;;;;;;12.48;11.25;;;19.70;99.90;;;;;;4952382;28;20708;-71
2022/05/20 07:32:27;;;;;;;12.90;11.68;;;19.60;99.90;;;;;;4955099;29;20626;-73
2022/05/20 07:34:55;;;;;;;14.20;12.73;;;19.60;99.90;;;;;;4956004;28;20209;-73
2022/05/20 07:37:23;;;;;;;13.45;12.35;;;19.60;99.90;;;;;;4955850;28;20207;-73
2022/05/20 07:39:52;;;;;;;14.50;12.25;;;19.60;99.90;;;;;;4955812;28;20255;-74
2022/05/20 07:42:21;;;;;;;13.65;12.55;;;19.60;99.90;;;;;;4954876;29;20266;-73
2022/05/20 07:44:50;;;;;;;14.57;12.70;;;19.70;99.90;;;;;;4955833;28;20641;-74
2022/05/20 07:47:19;;;;;;;13.25;11.98;;;19.80;99.90;;;;;;4955429;29;20263;-73
2022/05/20 07:49:47;;;;;;;15.60;12.45;;;19.90;99.90;;;;;;4964317;28;20783;-71
2022/05/20 07:53:19;;;;;;;14.35;13.05;;;20.00;99.90;;;;;;4954891;28;20307;-71
2022/05/20 07:55:09;;;;;;;14.43;13.13;;;20.10;99.90;;;;;;4951842;29;20247;-73
2022/05/20 07:57:41;;;;;;;13.40;12.02;;;20.30;99.90;;;;;;4955956;29;20239;-74
2022/05/20 08:00:12;;;;;;;14.15;13.05;;;20.50;99.90;;;;;;4955374;28;20708;-70
2022/05/20 08:02:42;;;;;;;15.60;14.20;;;20.60;99.90;;;;;;4954603;29;20461;-74
2022/05/20 08:05:15;;;;;;;12.90;11.57;;;20.70;99.90;;;;;;4955518;29;20211;-74
2022/05/20 08:07:46;;;;;;;13.45;12.25;;;20.70;99.90;;;;;;4955243;29;20623;-74
2022/05/20 08:10:18;;;;;;;12.95;11.73;;;20.90;99.90;;;;;;4955069;28;20231;-74
2022/05/20 08:12:46;;;;;;;13.70;12.30;;;21.10;99.90;;;;;;4954744;29;20234;-74
2022/05/20 08:15:15;;;;;;;13.63;12.52;;;21.40;99.90;;;;;;4955334;29;20258;-73
2022/05/20 08:17:43;;;;;;;11.68;10.60;;;21.70;99.90;;;;;;4955605;28;20739;-74
2022/05/20 08:20:16;;;;;;;11.48;10.45;;;21.80;99.90;;;;;;4965886;28;20651;-73
2022/05/20 08:22:45;;;;;;;11.18;10.18;;;21.90;99.90;;;;;;4951736;29;20247;-74
2022/05/20 08:25:13;;;;;;;14.27;11.50;;;21.90;99.90;;;;;;4955116;29;20274;-74
2022/05/20 08:27:42;;;;;;;12.05;11.00;;;22.10;99.90;;;;;;4954888;29;20231;-74
2022/05/20 08:30:12;;;;;;;10.63;9.82;;;22.10;99.90;;;;;;4955171;28;20314;-74
2022/05/20 08:32:40;;;;;;;10.88;9.95;;;22.40;99.90;;;;;;4954012;29;20258;-73
2022/05/20 08:35:10;;;;;;;11.13;10.05;;;22.60;99.90;;;;;;4954889;29;20259;-74
2022/05/20 08:37:39;;;;;;;10.10;8.93;;;22.60;99.90;;;;;;4954748;29;20215;-70
2022/05/20 08:40:10;;;;;;;10.75;9.70;;;22.80;99.90;;;;;;4954686;28;20262;-72
2022/05/20 08:42:38;;;;;;;12.15;11.00;;;23.00;99.90;;;;;;4952887;28;20724;-71
2022/05/20 08:45:09;;;;;;;9.48;8.68;;;23.10;99.90;;;;;;4954883;28;20307;-72
2022/05/20 08:47:42;;;;;;;11.15;10.07;;;23.40;99.90;;;;;;4954409;29;20239;-72
2022/05/20 08:50:14;;;;;;;11.40;9.40;;;23.60;99.90;;;;;;4955193;28;20282;-71
2022/05/20 08:52:42;;;;;;;11.23;10.13;;;23.70;99.90;;;;;;4953842;29;20227;-71
2022/05/20 08:55:11;;;;;;;11.57;9.30;;;23.80;99.90;;;;;;4954034;28;20235;-74
2022/05/20 08:57:45;;;;;;;12.73;10.18;;;23.90;99.90;;;;;;4954777;29;20298;-74
2022/05/20 09:00:16;;;;;;;11.63;10.43;;;23.90;99.90;;;;;;4954644;28;20227;-70
2022/05/20 09:02:44;;;;;;;9.77;8.98;;;24.00;99.90;;;;;;4953598;29;20266;-72
2022/05/20 09:05:19;;;;;;;9.85;8.95;;;24.30;99.90;;;;;;4954366;29;20254;-71
2022/05/20 09:08:00;;;;;;;11.20;10.18;;;24.50;99.90;;;;;;4954160;29;20688;-71
2022/05/20 09:10:34;;;;;;;10.23;9.32;;;24.50;99.90;;;;;;4999140;23;20307;-64
2022/05/20 09:13:07;;;;;;;10.57;9.55;;;24.50;99.90;;;;;;4998995;28;20210;-63
2022/05/20 09:15:43;;;;;;;13.38;10.48;;;24.50;99.90;;;;;;4992727;28;20253;-64
2022/05/20 09:18:17;;;;;;;9.90;9.10;;;24.50;99.90;;;;;;4998510;28;20198;-64
2022/05/20 09:20:47;;;;;;;9.40;8.60;;;24.50;99.90;;;;;;4992528;28;20313;-63
2022/05/20 09:23:20;;;;;;;10.50;9.07;;;24.60;99.90;;;;;;4991940;28;20233;-63
2022/05/20 09:25:58;;;;;;;11.63;10.63;;;24.70;99.90;;;;;;4992738;28;20265;-64
2022/05/20 09:28:32;;;;;;;10.95;10.02;;;24.70;99.90;;;;;;4986316;28;20267;-63
2022/05/20 09:31:14;;;;;;;11.25;8.68;;;24.70;99.90;;;;;;4992598;28;20643;-64
2022/05/20 09:33:50;;;;;;;10.23;9.40;;;24.70;99.90;;;;;;4991439;28;20245;-64
2022/05/20 09:36:34;;;;;;;9.23;8.52;;;24.60;99.90;;;;;;4992344;28;20224;-64
2022/05/20 09:39:10;;;;;;;12.05;11.15;;;25.00;99.90;;;;;;4992318;28;20256;-64
2022/05/20 09:41:47;;;;;;;12.77;11.50;;;25.20;99.90;;;;;;4992022;28;20316;-64
2022/05/20 09:44:16;;;;;;;10.50;9.57;;;25.50;99.90;;;;;;4991605;28;20236;-64
2022/05/20 09:46:51;;;;;;;10.38;9.48;;;25.80;99.90;;;;;;4992245;28;20206;-64
2022/05/20 09:49:27;;;;;;;10.07;9.23;;;26.00;99.90;;;;;;4994335;28;20298;-64
2022/05/20 09:51:59;;;;;;;11.65;10.75;;;26.30;99.90;;;;;;4991641;28;20589;-64
2022/05/20 09:54:33;;;;;;;13.43;10.50;;;26.30;99.90;;;;;;4991434;28;20237;-64
2022/05/20 09:57:11;;;;;;;9.82;9.00;;;26.60;99.90;;;;;;4992093;28;20209;-64
2022/05/20 09:59:47;;;;;;;9.05;8.15;;;27.00;99.90;;;;;;4985450;28;20300;-64
2022/05/20 10:02:25;;;;;;;11.35;10.32;;;27.20;99.90;;;;;;4991285;28;20198;-64
2022/05/20 10:05:03;;;;;;;9.40;8.60;;;27.30;99.90;;;;;;4991879;28;20236;-64
2022/05/20 10:07:57;;;;;;;9.25;7.47;;;27.50;99.90;;;;;;4991722;28;20623;-65
2022/05/20 10:10:36;;;;;;;10.20;8.90;;;27.60;99.90;;;;;;4991481;28;20273;-64
2022/05/20 10:13:07;;;;;;;11.70;9.63;;;27.80;99.90;;;;;;4990981;28;20240;-64
2022/05/20 10:15:41;;;;;;;11.27;10.35;;;27.80;99.90;;;;;;4991821;28;20225;-64
2022/05/20 10:18:26;;;;;;;10.85;10.05;;;27.80;99.90;;;;;;4996950;28;20277;-64
2022/05/20 10:21:13;;;;;;;10.52;9.45;;;27.90;99.90;;;;;;4991392;28;20749;-65
2022/05/20 10:23:52;;;;;;;11.68;10.68;;;28.10;99.90;;;;;;4986175;28;20205;-64
2022/05/20 10:26:32;;;;;;;10.68;9.57;;;28.00;99.90;;;;;;4992338;28;20493;-64
2022/05/20 10:34:45;;;;;;;11.90;10.90;;;28.60;99.90;;;;;;4991160;28;20745;-64
2022/05/20 10:37:23;;;;;;;10.07;9.18;;;28.40;99.90;;;;;;4991815;28;20618;-65
2022/05/20 10:40:37;;;;;;;9.80;8.93;;;28.30;99.90;;;;;;4991694;28;20260;-64
2022/05/20 10:43:17;;;;;;;9.52;8.80;;;28.70;99.90;;;;;;4966333;28;20237;-65
2022/05/20 10:49:06;;;;;;;11.80;9.60;;;29.40;99.90;;;;;;4993491;28;20210;-65
2022/05/20 10:51:48;;;;;;;10.75;9.73;;;29.30;99.90;;;;;;4987108;28;20317;-65
2022/05/20 10:54:27;;;;;;;9.13;8.43;;;29.00;99.90;;;;;;4990739;28;20289;-64
2022/05/20 10:57:17;;;;;;;11.45;10.52;;;29.30;99.90;;;;;;4991352;28;20210;-64
2022/05/20 11:00:01;;;;;;;10.23;9.30;;;29.50;99.90;;;;;;4991306;28;20284;-65
2022/05/20 11:02:41;;;;;;;11.88;10.40;;;29.60;99.90;;;;;;4990379;28;20717;-65
2022/05/20 11:05:34;;;;;;;8.88;8.10;;;29.50;99.90;;;;;;4991623;28;20214;-64
2022/05/20 11:08:12;;;;;;;10.95;9.68;;;29.50;99.90;;;;;;4995106;28;20737;-64
2022/05/20 11:11:02;;;;;;;15.43;12.10;;;29.80;99.90;;;;;;4994997;28;20880;-65
2022/05/20 11:13:47;;;;;;;12.98;11.63;;;29.60;99.90;;;;;;4994259;28;20280;-64
2022/05/20 11:16:35;;;;;;;10.82;9.95;;;29.30;99.90;;;;;;4995039;28;20319;-65
2022/05/20 11:19:28;;;;;;;12.80;11.30;;;29.10;99.90;;;;;;5000197;28;20261;-64
2022/05/20 11:22:14;;;;;;;16.05;10.80;;;28.90;99.90;;;;;;4993668;28;20205;-65
2022/05/20 11:25:10;;;;;;;12.00;10.82;;;29.00;99.90;;;;;;4995030;28;20206;-64
2022/05/20 11:28:04;;;;;;;12.82;11.23;;;29.10;99.90;;;;;;4994643;28;20714;-64
2022/05/20 11:30:51;;;;;;;14.38;12.00;;;29.10;99.90;;;;;;4994815;28;20250;-64
2022/05/20 11:33:43;;;;;;;13.05;11.77;;;28.70;99.90;;;;;;4988302;28;20213;-65
2022/05/20 11:36:21;;;;;;;10.00;9.20;;;29.10;99.90;;;;;;4994695;28;20309;-64
2022/05/20 11:39:20;;;;;;;12.23;11.23;;;29.40;99.90;;;;;;4994627;28;20256;-64
2022/05/20 11:41:59;;;;;;;12.10;11.05;;;29.50;99.90;;;;;;4982838;28;20292;-64
2022/05/20 11:44:40;;;;;;;11.80;10.60;;;29.70;99.90;;;;;;4994496;28;20212;-64
2022/05/20 11:47:37;;;;;;;12.40;9.30;;;29.90;99.90;;;;;;4995066;28;20718;-64
2022/05/20 11:50:21;;;;;;;12.20;10.90;;;29.80;99.90;;;;;;4990752;28;20411;-64
2022/05/20 11:52:54;;;;;;;11.48;10.68;;;29.70;99.90;;;;;;4993784;28;20400;-64
2022/05/20 11:55:28;;;;;;;11.48;10.48;;;29.40;99.90;;;;;;4994611;28;20202;-65
2022/05/20 11:58:03;;;;;;;13.60;10.80;;;28.80;99.90;;;;;;4994527;28;20202;-64
2022/05/20 12:00:32;;;;;;;13.35;11.10;;;28.40;99.90;;;;;;4994140;28;20233;-64
2022/05/20 12:03:03;;;;;;;11.07;10.07;;;28.10;99.90;;;;;;4993356;28;20194;-64
2022/05/20 12:05:35;;;;;;;11.02;9.80;;;28.30;99.90;;;;;;4994381;28;20252;-64
2022/05/20 12:08:04;;;;;;;12.80;11.02;;;28.40;99.90;;;;;;4994392;28;20293;-64
2022/05/20 12:10:45;;;;;;;10.73;9.70;;;28.50;99.90;;;;;;4993904;28;20238;-64
2022/05/20 12:13:19;;;;;;;12.65;8.77;;;28.50;99.90;;;;;;4993239;28;20605;-64
2022/05/20 12:15:50;;;;;;;10.45;9.50;;;28.50;99.90;;;;;;4994043;28;20903;-64
2022/05/20 12:24:30;;;;;;;13.63;11.60;;;27.90;99.90;;;;;;4968001;28;20230;-64
2022/05/20 12:26:58;;;;;;;11.32;10.20;;;27.60;99.90;;;;;;4993805;28;20256;-64
2022/05/20 12:29:55;;;;;;;11.68;10.68;;;27.40;99.90;;;;;;4993468;28;20202;-64
2022/05/20 12:32:42;;;;;;;11.90;10.77;;;27.60;99.90;;;;;;4992768;28;20323;-66
2022/05/20 12:35:20;;;;;;;11.85;10.73;;;28.30;99.90;;;;;;4991638;28;20221;-64
2022/05/20 12:38:14;;;;;;;10.18;9.18;;;29.20;99.90;;;;;;4993413;28;20264;-64
2022/05/20 12:40:59;;;;;;;10.77;9.73;;;30.00;99.90;;;;;;4987212;28;20230;-65
2022/05/20 12:44:02;;;;;;;12.85;10.10;;;30.80;99.90;;;;;;4992750;28;20284;-65
2022/05/20 12:46:50;;;;;;;11.20;10.13;;;31.50;99.90;;;;;;4993590;28;20296;-65
2022/05/20 12:49:19;;;;;;;10.75;7.95;;;31.60;99.90;;;;;;4994908;28;20202;-64
2022/05/20 12:51:49;;;;;;;12.48;8.25;;;32.00;99.90;;;;;;4993119;28;20218;-64
2022/05/20 12:54:24;;;;;;;8.75;7.95;;;32.30;99.90;;;;;;4992743;28;20628;-65
2022/05/20 12:57:05;;;;;;;9.60;7.95;;;32.30;99.90;;;;;;4993274;28;20260;-65
2022/05/20 12:59:33;;;;;;;8.27;6.75;;;32.20;99.90;;;;;;4993343;28;20248;-64
2022/05/20 13:02:10;;;;;;;8.05;6.78;;;32.00;99.90;;;;;;4992547;28;20229;-64
2022/05/20 13:04:42;;;;;;;9.50;7.72;;;31.70;99.90;;;;;;4992643;28;20212;-64
2022/05/20 13:07:16;;;;;;;9.48;7.05;;;31.20;99.90;;;;;;4992875;28;20706;-64
2022/05/20 13:09:46;;;;;;;10.77;6.65;;;30.60;99.90;;;;;;4992676;28;22306;-65
2022/05/20 13:12:19;;;;;;;8.93;6.63;;;30.00;99.90;;;;;;4992072;28;20699;-64
2022/05/20 13:14:56;;;;;;;8.65;7.07;;;29.50;99.90;;;;;;4992404;28;20637;-64
2022/05/20 13:17:26;;;;;;;12.85;7.82;;;29.20;99.90;;;;;;4995540;28;20209;-64
2022/05/20 13:19:56;;;;;;;7.40;6.60;;;28.80;99.90;;;;;;4992632;28;20213;-65
2022/05/20 13:22:27;;;;;;;8.02;7.32;;;29.00;99.90;;;;;;4991913;28;20202;-64
2022/05/20 13:24:59;;;;;;;8.95;7.78;;;29.00;99.90;;;;;;4992300;28;20202;-65
2022/05/20 13:27:27;;;;;;;10.13;7.80;;;29.00;99.90;;;;;;4992872;28;20342;-65
2022/05/20 13:30:07;;;;;;;8.38;7.65;;;29.30;99.90;;;;;;4992188;28;20325;-65
2022/05/20 13:32:36;;;;;;;9.63;8.63;;;29.50;99.90;;;;;;4991874;28;20308;-65
2022/05/20 13:35:07;;;;;;;12.55;7.72;;;29.40;99.90;;;;;;4992244;28;20241;-65